Time;durP1;ratioP1;P1;durP2;ratioP2;P2;SDS_P1;SDS_P2;PMS_P1;PMS_P2;Temp;Humidity;BMP_temperature;BMP_pressure;BME280_temperature;BME280_humidity;BME280_pressure;Samples;Min_cycle;Max_cycle;Signal;HPM_P1;HPM_P2
2023/03/11 00:01:11;;;;;;;24.23;14.57;;;2.20;99.90;;;;;;5059464;28;20196;-84
2023/03/11 00:03:38;;;;;;;20.95;13.73;;;2.20;99.90;;;;;;5059914;28;20232;-85
2023/03/11 00:06:06;;;;;;;26.40;14.90;;;;;;;;;;5061458;28;20228;-85
2023/03/11 00:08:34;;;;;;;20.42;11.55;;;;;;;;;;5066768;28;20207;-84
2023/03/11 00:11:01;;;;;;;19.27;13.48;;;1.80;73.10;;;;;;5068601;28;20207;-84
2023/03/11 00:13:29;;;;;;;15.13;10.32;;;1.80;99.90;;;;;;5067907;28;20232;-85
2023/03/11 00:15:58;;;;;;;17.55;12.05;;;;;;;;;;5060104;28;20534;-85
2023/03/11 00:18:30;;;;;;;17.00;11.73;;;1.70;99.90;;;;;;5060300;28;20685;-84
2023/03/11 00:20:58;;;;;;;16.13;11.65;;;1.40;47.50;;;;;;5061488;28;20234;-84
2023/03/11 00:23:26;;;;;;;14.30;9.60;;;1.40;32.30;;;;;;5074491;22;20644;-78
2023/03/11 00:25:54;;;;;;;14.55;9.68;;;1.40;50.00;;;;;;5055191;28;20224;-78
2023/03/11 00:28:24;;;;;;;16.23;10.70;;;1.30;49.40;;;;;;5055717;28;20210;-78
2023/03/11 00:30:51;;;;;;;20.05;12.45;;;1.20;47.60;;;;;;5055764;28;20231;-78
2023/03/11 00:33:17;;;;;;;20.30;12.98;;;1.20;50.70;;;;;;5055423;28;20220;-77
2023/03/11 00:35:46;;;;;;;17.55;12.05;;;1.20;55.60;;;;;;5055780;28;20195;-78
2023/03/11 00:38:15;;;;;;;15.85;10.85;;;1.20;56.30;;;;;;5057772;28;20200;-77
2023/03/11 00:40:43;;;;;;;13.75;10.95;;;1.20;61.30;;;;;;5061980;28;20290;-77
2023/03/11 00:43:10;;;;;;;14.38;9.77;;;1.10;69.40;;;;;;5058932;28;20318;-77
2023/03/11 00:45:37;;;;;;;19.75;12.40;;;1.10;75.30;;;;;;5056804;28;20720;-77
2023/03/11 00:48:05;;;;;;;16.75;11.30;;;1.00;75.00;;;;;;5056315;28;20229;-77
2023/03/11 00:50:33;;;;;;;17.85;11.57;;;1.00;76.40;;;;;;5056580;28;20205;-78
2023/03/11 00:53:03;;;;;;;15.07;10.05;;;1.00;78.20;;;;;;5059484;28;20736;-78
2023/03/11 00:55:32;;;;;;;14.48;9.75;;;1.00;79.60;;;;;;5058086;28;20220;-77
2023/03/11 00:58:00;;;;;;;15.18;10.32;;;0.90;80.10;;;;;;5056462;28;20222;-77
2023/03/11 01:00:29;;;;;;;17.25;9.05;;;0.90;84.20;;;;;;5055619;28;20207;-77
2023/03/11 01:02:56;;;;;;;15.60;10.93;;;0.90;88.30;;;;;;5054984;28;20416;-77
2023/03/11 01:05:26;;;;;;;15.50;10.63;;;0.90;88.50;;;;;;5054545;28;20245;-78
2023/03/11 01:07:53;;;;;;;14.93;9.93;;;0.90;90.40;;;;;;5054891;28;20206;-77
2023/03/11 01:10:21;;;;;;;21.67;12.77;;;0.90;91.60;;;;;;5054547;28;20677;-78
2023/03/11 01:12:48;;;;;;;20.25;13.48;;;0.80;92.10;;;;;;5054924;28;20234;-78
2023/03/11 01:15:18;;;;;;;19.45;13.18;;;1.00;99.90;;;;;;5054884;28;20294;-78
2023/03/11 01:17:45;;;;;;;19.00;13.18;;;0.80;95.70;;;;;;5055595;28;20278;-77
2023/03/11 01:20:12;;;;;;;19.95;13.38;;;0.90;97.70;;;;;;5055091;28;20225;-77
2023/03/11 01:22:39;;;;;;;21.70;14.02;;;0.90;99.90;;;;;;5055012;28;20219;-78
2023/03/11 01:25:07;;;;;;;21.27;13.00;;;0.80;99.90;;;;;;5055375;28;20217;-77
2023/03/11 01:27:35;;;;;;;22.27;14.48;;;0.80;99.90;;;;;;5054984;28;20239;-77
2023/03/11 01:30:03;;;;;;;23.00;14.32;;;0.80;99.90;;;;;;5055053;28;20289;-77
2023/03/11 01:32:30;;;;;;;21.38;14.52;;;0.70;99.90;;;;;;5054779;28;20203;-77
2023/03/11 01:34:56;;;;;;;24.25;15.55;;;0.80;99.90;;;;;;5055216;28;20202;-77
2023/03/11 01:37:23;;;;;;;23.30;14.23;;;0.90;99.90;;;;;;5054488;28;20270;-77
2023/03/11 01:39:50;;;;;;;23.90;14.45;;;0.80;99.90;;;;;;5055290;28;20207;-77
2023/03/11 01:42:17;;;;;;;22.27;13.30;;;0.50;99.90;;;;;;5057188;28;20217;-77
2023/03/11 01:44:45;;;;;;;20.73;14.48;;;0.80;99.90;;;;;;5066490;28;20203;-77
2023/03/11 01:47:38;;;;;;;20.23;13.85;;;0.80;99.90;;;;;;5059435;28;20214;-77
2023/03/11 01:50:10;;;;;;;19.52;12.07;;;0.70;99.90;;;;;;5054305;28;20661;-77
2023/03/11 01:52:38;;;;;;;18.35;12.88;;;0.90;99.90;;;;;;5053892;28;20314;-78
2023/03/11 01:55:06;;;;;;;16.60;10.23;;;0.80;99.90;;;;;;5054240;28;20202;-77
2023/03/11 01:57:33;;;;;;;15.57;10.40;;;0.70;99.90;;;;;;5054226;28;20728;-77
2023/03/11 02:00:05;;;;;;;14.90;8.60;;;0.70;99.90;;;;;;5053726;28;20211;-77
2023/03/11 02:02:35;;;;;;;10.60;7.90;;;0.70;99.90;;;;;;5054037;28;20191;-77
2023/03/11 02:05:03;;;;;;;6.72;5.57;;;0.70;99.90;;;;;;5054345;28;20191;-77
2023/03/11 02:07:30;;;;;;;7.22;5.20;;;0.70;99.90;;;;;;5053887;28;20208;-78
2023/03/11 02:09:57;;;;;;;7.53;5.80;;;0.70;99.90;;;;;;5053935;28;20199;-79
2023/03/11 02:12:24;;;;;;;5.65;4.40;;;1.20;99.90;;;;;;5054301;28;20204;-78
2023/03/11 02:14:53;;;;;;;4.93;3.55;;;0.80;99.90;;;;;;5053836;28;20205;-77
2023/03/11 02:17:22;;;;;;;4.80;3.92;;;0.80;99.90;;;;;;5053633;28;20298;-78
2023/03/11 02:20:02;;;;;;;4.35;3.95;;;0.80;99.90;;;;;;5054392;28;20204;-79
2023/03/11 02:22:32;;;;;;;3.70;3.35;;;0.80;99.90;;;;;;5057141;28;20607;-79
2023/03/11 02:25:04;;;;;;;3.97;3.60;;;0.80;99.90;;;;;;5075741;28;20179;-78
2023/03/11 02:27:36;;;;;;;4.78;3.45;;;0.80;99.90;;;;;;5077389;28;20190;-79
2023/03/11 02:30:04;;;;;;;3.42;3.05;;;0.80;99.90;;;;;;5064600;28;20187;-79
2023/03/11 02:32:32;;;;;;;4.70;2.58;;;0.90;99.90;;;;;;5057970;28;20571;-79
2023/03/11 02:34:58;;;;;;;3.25;2.85;;;0.80;99.90;;;;;;5056197;28;20246;-78
2023/03/11 02:37:25;;;;;;;3.97;3.45;;;0.80;99.90;;;;;;5056301;28;20670;-79
2023/03/11 02:39:54;;;;;;;3.25;2.95;;;0.80;99.90;;;;;;5055988;28;20388;-79
2023/03/11 02:42:25;;;;;;;3.53;3.22;;;1.00;99.90;;;;;;5060459;28;20262;-79
2023/03/11 02:44:59;;;;;;;5.30;3.65;;;0.80;99.90;;;;;;5063767;28;20578;-79
2023/03/11 02:47:27;;;;;;;3.53;3.22;;;0.70;99.90;;;;;;5062280;28;20194;-78
2023/03/11 02:49:56;;;;;;;4.10;2.78;;;0.80;99.90;;;;;;5067330;28;20310;-78
2023/03/11 02:52:25;;;;;;;4.47;3.80;;;0.60;99.90;;;;;;5068520;28;20237;-78
2023/03/11 02:54:51;;;;;;;3.88;3.17;;;0.80;99.90;;;;;;5069948;28;20207;-78
2023/03/11 02:57:18;;;;;;;3.30;3.00;;;0.70;99.90;;;;;;5066020;28;20753;-78
2023/03/11 02:59:45;;;;;;;3.85;3.20;;;0.80;99.90;;;;;;5062178;28;20206;-79
2023/03/11 03:02:13;;;;;;;5.60;4.25;;;0.80;99.90;;;;;;5061981;28;20272;-78
2023/03/11 03:04:40;;;;;;;5.10;3.75;;;0.70;99.90;;;;;;5065239;28;20565;-79
2023/03/11 03:07:07;;;;;;;4.68;4.28;;;0.70;99.90;;;;;;5068392;28;20220;-78
2023/03/11 03:09:35;;;;;;;7.82;4.82;;;0.70;99.90;;;;;;5068330;28;20220;-79
2023/03/11 03:12:02;;;;;;;5.22;3.97;;;0.80;99.90;;;;;;5062887;28;20208;-78
2023/03/11 03:14:29;;;;;;;5.07;3.85;;;0.80;99.90;;;;;;5060024;28;20234;-79
2023/03/11 03:16:56;;;;;;;5.05;4.20;;;0.80;99.90;;;;;;5058960;28;20206;-79
2023/03/11 03:19:24;;;;;;;6.03;4.43;;;0.80;99.90;;;;;;5058629;28;20210;-79
2023/03/11 03:21:51;;;;;;;7.50;4.00;;;0.80;99.90;;;;;;5058777;28;20284;-78
2023/03/11 03:24:18;;;;;;;4.60;3.95;;;0.80;99.90;;;;;;5058685;28;20230;-79
2023/03/11 03:26:45;;;;;;;4.53;4.15;;;0.80;99.90;;;;;;5058857;28;20234;-78
2023/03/11 03:29:12;;;;;;;5.18;4.68;;;0.80;99.90;;;;;;5059187;28;20578;-80
2023/03/11 03:31:38;;;;;;;7.60;4.50;;;0.80;99.90;;;;;;5058812;28;20698;-78
2023/03/11 03:34:05;;;;;;;5.45;4.80;;;0.80;99.90;;;;;;5058090;28;20716;-78
2023/03/11 03:36:33;;;;;;;5.10;3.97;;;0.70;99.90;;;;;;5057807;28;20206;-78
2023/03/11 03:39:00;;;;;;;5.10;4.20;;;0.70;99.90;;;;;;5057775;28;20199;-78
2023/03/11 03:41:27;;;;;;;5.30;4.80;;;0.70;99.90;;;;;;5059062;28;20204;-78
2023/03/11 03:43:54;;;;;;;4.90;4.45;;;0.70;99.90;;;;;;5066262;28;20250;-79
2023/03/11 03:46:22;;;;;;;6.93;4.75;;;0.70;99.90;;;;;;5064288;28;20222;-78
2023/03/11 03:48:49;;;;;;;4.95;4.45;;;0.60;99.90;;;;;;5066724;28;20286;-78
2023/03/11 03:51:16;;;;;;;5.20;4.68;;;0.70;99.90;;;;;;5067559;28;20208;-79
2023/03/11 03:53:45;;;;;;;5.03;4.43;;;0.70;99.90;;;;;;5070197;28;20254;-79
2023/03/11 03:56:14;;;;;;;6.38;5.18;;;0.70;99.90;;;;;;5069472;28;20204;-78
2023/03/11 03:58:41;;;;;;;6.25;5.00;;;0.70;99.90;;;;;;5064008;28;20230;-78
2023/03/11 04:01:09;;;;;;;6.20;4.43;;;0.70;99.90;;;;;;5058080;28;20243;-78
2023/03/11 04:03:37;;;;;;;6.50;5.53;;;0.70;99.90;;;;;;5057965;28;20306;-78
2023/03/11 04:06:08;;;;;;;7.05;5.57;;;0.70;99.90;;;;;;5057744;28;20346;-79
2023/03/11 04:08:41;;;;;;;5.78;5.20;;;0.70;99.90;;;;;;5069211;28;20203;-78
2023/03/11 04:11:09;;;;;;;5.80;4.15;;;0.70;99.90;;;;;;5067386;28;20351;-78
2023/03/11 04:13:36;;;;;;;6.30;5.03;;;0.70;99.90;;;;;;5062654;28;20589;-78
2023/03/11 04:16:04;;;;;;;6.85;5.70;;;0.70;99.90;;;;;;5066098;28;20227;-77
2023/03/11 04:18:31;;;;;;;6.45;4.93;;;0.70;99.90;;;;;;5057495;28;20203;-78
2023/03/11 04:20:58;;;;;;;5.95;5.35;;;0.60;99.90;;;;;;5057752;28;20209;-78
2023/03/11 04:23:25;;;;;;;6.03;4.82;;;0.70;99.90;;;;;;5057502;28;20812;-79
2023/03/11 04:25:51;;;;;;;8.07;5.90;;;0.70;99.90;;;;;;5058014;28;20226;-79
2023/03/11 04:28:20;;;;;;;7.22;5.50;;;0.70;99.90;;;;;;5056479;28;20436;-78
2023/03/11 04:30:46;;;;;;;7.38;6.10;;;0.70;99.90;;;;;;5057025;28;20577;-78
2023/03/11 04:33:13;;;;;;;9.30;5.72;;;0.70;99.90;;;;;;5060048;28;20286;-80
2023/03/11 04:35:40;;;;;;;6.70;5.40;;;0.70;99.90;;;;;;5062444;28;20697;-79
2023/03/11 04:38:07;;;;;;;6.47;5.22;;;0.70;99.90;;;;;;5063239;28;20199;-79
2023/03/11 04:40:34;;;;;;;5.32;4.53;;;0.80;99.90;;;;;;5058663;28;20547;-79
2023/03/11 04:43:01;;;;;;;7.85;5.70;;;0.90;99.90;;;;;;5054967;28;20435;-78
2023/03/11 04:45:29;;;;;;;8.82;6.50;;;0.80;99.90;;;;;;5055450;28;20294;-79
2023/03/11 04:47:56;;;;;;;6.90;4.85;;;0.90;99.90;;;;;;5056734;28;20234;-79
2023/03/11 04:50:23;;;;;;;7.07;5.25;;;0.80;99.90;;;;;;5056693;28;20231;-79
2023/03/11 04:52:50;;;;;;;7.00;6.13;;;0.80;99.90;;;;;;5070204;28;20264;-78
2023/03/11 04:55:17;;;;;;;8.48;5.57;;;0.80;99.90;;;;;;5078247;28;20456;-78
2023/03/11 04:57:44;;;;;;;9.52;5.78;;;0.80;99.90;;;;;;5060652;28;20195;-78
2023/03/11 05:00:14;;;;;;;8.88;5.10;;;0.80;99.90;;;;;;5057430;28;20203;-78
2023/03/11 05:02:43;;;;;;;7.30;5.88;;;0.80;99.90;;;;;;5058221;28;20223;-79
2023/03/11 05:05:10;;;;;;;5.68;4.90;;;0.80;99.90;;;;;;5060588;28;20208;-78
2023/03/11 05:07:37;;;;;;;4.95;4.22;;;0.80;99.90;;;;;;5060066;28;20649;-78
2023/03/11 05:10:05;;;;;;;7.22;4.65;;;0.80;99.90;;;;;;5060161;28;20581;-78
2023/03/11 05:12:32;;;;;;;15.82;10.18;;;0.90;99.90;;;;;;5057765;28;20205;-79
2023/03/11 05:14:59;;;;;;;5.78;4.45;;;0.80;99.90;;;;;;5057606;28;20208;-79
2023/03/11 05:17:26;;;;;;;4.80;4.30;;;0.90;99.90;;;;;;5056113;28;20553;-79
2023/03/11 05:19:54;;;;;;;6.40;4.85;;;0.80;99.90;;;;;;5057234;28;20211;-79
2023/03/11 05:22:21;;;;;;;8.15;5.20;;;0.90;99.90;;;;;;5057304;28;20231;-79
2023/03/11 05:24:49;;;;;;;5.00;4.35;;;0.80;99.90;;;;;;5056721;28;20620;-80
2023/03/11 05:27:17;;;;;;;4.68;4.22;;;0.80;99.90;;;;;;5057981;28;20227;-79
2023/03/11 05:29:44;;;;;;;4.82;4.35;;;0.80;99.90;;;;;;5057337;28;20207;-79
2023/03/11 05:32:12;;;;;;;5.63;4.80;;;0.80;99.90;;;;;;5058100;28;20294;-79
2023/03/11 05:34:39;;;;;;;5.18;4.40;;;0.80;99.90;;;;;;5063670;28;20207;-79
2023/03/11 05:37:08;;;;;;;4.07;3.78;;;0.80;99.90;;;;;;5066813;28;20227;-79
2023/03/11 05:39:36;;;;;;;6.85;5.00;;;0.80;99.90;;;;;;5063840;28;20246;-79
2023/03/11 05:42:03;;;;;;;5.65;3.92;;;0.80;99.90;;;;;;5060139;28;20206;-80
2023/03/11 05:44:30;;;;;;;5.68;4.35;;;0.80;99.90;;;;;;5061785;28;20233;-79
2023/03/11 05:46:57;;;;;;;5.45;3.95;;;0.80;99.90;;;;;;5060657;28;20705;-80
2023/03/11 05:49:24;;;;;;;5.15;4.63;;;0.80;99.90;;;;;;5059367;28;20235;-79
2023/03/11 05:51:53;;;;;;;5.47;4.60;;;0.80;99.90;;;;;;5057152;28;20214;-79
2023/03/11 05:54:21;;;;;;;5.55;4.63;;;0.80;99.90;;;;;;5065936;28;20230;-79
2023/03/11 05:56:48;;;;;;;7.47;4.90;;;0.80;99.90;;;;;;5065831;28;20263;-79
2023/03/11 05:59:15;;;;;;;5.45;4.82;;;0.80;99.90;;;;;;5065881;28;20207;-79
2023/03/11 06:01:43;;;;;;;5.82;5.10;;;0.90;99.90;;;;;;5064688;28;20233;-80
2023/03/11 06:04:10;;;;;;;6.75;5.93;;;0.90;99.90;;;;;;5063665;28;20310;-80
2023/03/11 06:06:39;;;;;;;6.38;5.03;;;0.90;99.90;;;;;;5062114;28;20230;-80
2023/03/11 06:09:06;;;;;;;5.93;5.05;;;0.80;99.90;;;;;;5061044;28;20250;-80
2023/03/11 06:11:34;;;;;;;8.80;5.85;;;0.80;99.90;;;;;;5060671;28;20294;-79
2023/03/11 06:14:00;;;;;;;6.97;5.38;;;0.90;99.90;;;;;;5061671;28;20319;-79
2023/03/11 06:16:27;;;;;;;7.05;5.60;;;0.90;99.90;;;;;;5064393;28;20287;-78
2023/03/11 06:18:54;;;;;;;8.95;5.97;;;0.80;99.90;;;;;;5061448;28;20207;-79
2023/03/11 06:21:23;;;;;;;7.15;5.80;;;0.80;99.90;;;;;;5056630;28;20289;-79
2023/03/11 06:23:50;;;;;;;6.68;5.32;;;0.80;99.90;;;;;;5078847;22;20724;-85
2023/03/11 06:26:19;;;;;;;8.40;5.85;;;0.80;99.90;;;;;;5057964;28;20203;-85
2023/03/11 06:28:48;;;;;;;6.70;5.70;;;0.80;99.90;;;;;;5057412;28;20204;-85
2023/03/11 06:31:19;;;;;;;8.75;6.10;;;0.90;99.90;;;;;;5057434;28;20301;-85
2023/03/11 06:33:47;;;;;;;9.50;7.43;;;1.50;99.90;;;;;;5056726;28;20231;-83
2023/03/11 06:36:18;;;;;;;9.40;7.07;;;1.00;99.90;;;;;;5057004;28;20202;-85
2023/03/11 06:38:45;;;;;;;9.50;5.65;;;0.90;99.90;;;;;;5063181;28;20259;-84
2023/03/11 06:41:13;;;;;;;7.40;5.82;;;0.90;99.90;;;;;;5070588;28;20229;-85
2023/03/11 06:43:40;;;;;;;7.40;6.53;;;0.90;99.90;;;;;;5057777;28;20238;-85
2023/03/11 06:46:13;;;;;;;9.40;6.80;;;1.00;99.90;;;;;;5060073;28;20275;-84
2023/03/11 06:48:40;;;;;;;10.80;6.90;;;0.80;99.90;;;;;;5060467;28;20211;-84
2023/03/11 06:51:07;;;;;;;7.63;6.57;;;0.90;99.90;;;;;;5066297;28;20639;-83
2023/03/11 06:53:34;;;;;;;9.43;7.65;;;0.90;99.90;;;;;;5057643;28;20575;-84
2023/03/11 06:56:03;;;;;;;12.93;8.73;;;1.00;99.90;;;;;;5060819;28;20199;-86
2023/03/11 06:58:30;;;;;;;9.60;7.70;;;1.10;99.90;;;;;;5058780;28;20235;-85
2023/03/11 07:01:01;;;;;;;7.30;6.50;;;2.00;99.90;;;;;;5073506;28;20238;-84
2023/03/11 07:03:29;;;;;;;12.50;7.85;;;0.80;99.90;;;;;;5071875;28;20219;-86
2023/03/11 07:05:56;;;;;;;14.88;7.60;;;1.00;99.90;;;;;;5059338;28;20294;-86
2023/03/11 07:08:23;;;;;;;8.07;7.05;;;1.10;99.90;;;;;;5057318;28;20259;-85
2023/03/11 07:11:01;;;;;;;10.43;7.95;;;1.10;94.80;;;;;;5056412;28;20215;-84
2023/03/11 07:13:28;;;;;;;10.13;6.18;;;1.20;99.90;;;;;;5056419;28;20233;-85
2023/03/11 07:16:01;;;;;;;7.85;6.60;;;1.30;97.70;;;;;;5059240;28;20565;-85
2023/03/11 07:18:29;;;;;;;9.18;6.90;;;1.10;1.00;;;;;;5059092;28;20531;-85
2023/03/11 07:20:56;;;;;;;8.00;7.05;;;1.10;1.00;;;;;;5058363;28;20200;-85
2023/03/11 07:23:23;;;;;;;8.95;7.20;;;1.10;1.00;;;;;;5056745;28;20232;-85
2023/03/11 07:25:51;;;;;;;7.45;6.15;;;1.10;1.00;;;;;;5058381;28;20567;-84
2023/03/11 07:28:18;;;;;;;11.32;6.40;;;1.10;1.00;;;;;;5067381;28;20248;-83
2023/03/11 07:30:45;;;;;;;8.60;7.20;;;1.10;1.00;;;;;;5066504;28;20231;-84
2023/03/11 07:33:12;;;;;;;11.48;7.60;;;1.10;1.00;;;;;;5069178;28;20215;-84
2023/03/11 07:35:40;;;;;;;11.32;7.82;;;1.00;1.00;;;;;;5070128;28;20203;-83
2023/03/11 07:38:08;;;;;;;11.15;6.60;;;1.10;1.00;;;;;;5072262;28;20209;-84
2023/03/11 07:40:35;;;;;;;8.13;7.05;;;1.00;1.00;;;;;;5063933;28;20238;-84
2023/03/11 07:43:02;;;;;;;7.85;6.15;;;1.00;1.00;;;;;;5060614;28;20211;-84
2023/03/11 07:45:29;;;;;;;10.90;6.32;;;1.10;1.00;;;;;;5060665;28;20675;-84
2023/03/11 07:47:55;;;;;;;7.85;6.32;;;1.20;1.00;;;;;;5061041;28;20249;-84
2023/03/11 07:50:22;;;;;;;9.05;6.22;;;1.20;1.00;;;;;;5060831;28;20291;-84
2023/03/11 07:52:51;;;;;;;9.63;6.82;;;1.40;1.00;;;;;;5060308;28;20620;-85
2023/03/11 07:55:18;;;;;;;9.18;6.40;;;1.20;1.00;;;;;;5060773;28;20210;-84
2023/03/11 07:57:50;;;;;;;6.82;6.00;;;1.20;1.00;;;;;;5064710;28;20203;-84
2023/03/11 08:00:18;;;;;;;7.00;6.30;;;1.20;1.00;;;;;;5062401;28;20188;-85
2023/03/11 08:02:46;;;;;;;8.77;5.65;;;1.20;1.00;;;;;;5060742;28;20214;-86
2023/03/11 08:05:13;;;;;;;7.15;5.93;;;1.40;1.00;;;;;;5060032;28;20200;-85
2023/03/11 08:07:40;;;;;;;8.90;7.13;;;1.40;1.00;;;;;;5060277;28;20223;-85
2023/03/11 08:10:10;;;;;;;16.38;8.25;;;1.50;1.00;;;;;;5060546;28;20207;-84
2023/03/11 08:12:37;;;;;;;9.52;7.43;;;1.50;1.00;;;;;;5069347;28;20210;-84
2023/03/11 08:15:04;;;;;;;9.15;6.97;;;1.50;1.00;;;;;;5078571;28;20249;-85
2023/03/11 08:17:31;;;;;;;6.68;5.82;;;1.80;1.00;;;;;;5065168;28;20214;-84
2023/03/11 08:19:58;;;;;;;9.20;7.78;;;2.00;1.00;;;;;;5072683;28;20195;-84
2023/03/11 08:22:25;;;;;;;6.82;6.10;;;1.60;1.00;;;;;;5078788;28;20204;-85
2023/03/11 08:24:53;;;;;;;7.43;6.05;;;1.80;1.00;;;;;;5071687;28;20785;-85
2023/03/11 08:27:21;;;;;;;9.25;6.70;;;1.70;99.90;;;;;;5073543;28;20225;-85
2023/03/11 08:29:48;;;;;;;9.20;6.93;;;1.80;1.00;;;;;;5080506;28;20202;-85
2023/03/11 08:32:18;;;;;;;7.75;6.38;;;1.90;1.00;;;;;;5072324;28;20207;-86
2023/03/11 08:34:45;;;;;;;8.10;5.88;;;1.50;99.90;;;;;;5072180;28;20314;-84
2023/03/11 08:37:11;;;;;;;10.15;6.45;;;1.50;99.90;;;;;;5063681;28;20294;-86
2023/03/11 08:39:41;;;;;;;7.80;6.90;;;1.60;1.00;;;;;;5061083;28;20199;-85
2023/03/11 08:42:09;;;;;;;7.80;5.78;;;2.10;99.90;;;;;;5061353;28;20719;-84
2023/03/11 08:44:39;;;;;;;7.38;6.32;;;1.80;99.90;;;;;;5060323;28;20311;-85
2023/03/11 08:47:06;;;;;;;6.80;6.15;;;2.00;99.90;;;;;;5059246;28;20188;-85
2023/03/11 08:49:33;;;;;;;17.38;5.53;;;1.90;99.90;;;;;;5060287;28;20203;-85
2023/03/11 08:52:01;;;;;;;7.60;6.40;;;1.70;99.90;;;;;;5059315;28;20207;-84
2023/03/11 08:54:28;;;;;;;8.30;7.20;;;1.70;99.90;;;;;;5059077;28;20313;-85
2023/03/11 08:56:55;;;;;;;6.53;5.90;;;1.90;99.90;;;;;;5059341;28;20215;-85
2023/03/11 08:59:22;;;;;;;7.20;6.60;;;2.10;99.90;;;;;;5061312;28;20227;-85
2023/03/11 09:01:50;;;;;;;8.30;6.63;;;2.10;99.90;;;;;;5060622;28;20211;-84
2023/03/11 09:04:17;;;;;;;7.13;6.50;;;2.00;99.90;;;;;;5064019;28;20234;-85
2023/03/11 09:06:44;;;;;;;9.00;6.10;;;1.70;99.90;;;;;;5067190;28;20234;-84
2023/03/11 09:09:12;;;;;;;9.32;6.63;;;1.90;99.20;;;;;;5058683;28;20328;-85
2023/03/11 09:11:40;;;;;;;6.53;5.93;;;1.90;99.90;;;;;;5063415;28;20294;-85
2023/03/11 09:14:07;;;;;;;7.13;5.53;;;1.80;99.60;;;;;;5058820;28;20305;-85
2023/03/11 09:16:34;;;;;;;7.50;6.35;;;1.80;99.90;;;;;;5058739;28;20249;-85
2023/03/11 09:19:06;;;;;;;6.85;5.32;;;2.10;99.90;;;;;;5059295;28;20223;-84
2023/03/11 09:21:34;;;;;;;9.13;6.78;;;2.30;99.90;;;;;;5060798;28;20195;-85
2023/03/11 09:24:03;;;;;;;10.27;8.45;;;2.40;99.90;;;;;;5058778;28;20267;-85
2023/03/11 09:26:30;;;;;;;8.70;6.78;;;2.50;99.90;;;;;;5058931;28;20202;-84
2023/03/11 09:28:58;;;;;;;6.25;5.65;;;2.60;99.90;;;;;;5059427;28;20246;-86
2023/03/11 09:31:37;;;;;;;14.38;7.70;;;2.80;99.90;;;;;;5059622;28;20208;-86
2023/03/11 09:34:06;;;;;;;8.07;6.40;;;2.60;95.00;;;;;;5060710;28;20231;-85
2023/03/11 09:36:33;;;;;;;8.60;5.35;;;;;;;;;;5058170;28;20680;-85
2023/03/11 09:39:01;;;;;;;6.97;6.18;;;2.50;1.00;;;;;;5058718;28;20241;-85
2023/03/11 09:41:37;;;;;;;8.80;6.80;;;2.40;53.50;;;;;;5057887;28;20234;-85
2023/03/11 09:44:18;;;;;;;8.30;5.82;;;2.30;1.00;;;;;;5058868;28;20222;-84
2023/03/11 09:47:15;;;;;;;6.90;5.65;;;2.30;1.00;;;;;;5060079;28;20632;-86
2023/03/11 09:50:06;;;;;;;6.68;6.07;;;2.40;1.00;;;;;;5043514;28;20550;-86
2023/03/11 09:52:38;;;;;;;6.20;5.60;;;2.30;1.00;;;;;;5058189;28;20279;-84
2023/03/11 09:55:16;;;;;;;5.75;5.15;;;2.00;1.00;;;;;;5058349;28;20251;-84
2023/03/11 09:57:44;;;;;;;7.28;6.38;;;2.00;1.00;;;;;;5057168;28;20187;-84
2023/03/11 10:00:13;;;;;;;12.07;6.05;;;1.60;99.60;;;;;;5057634;28;20261;-84
2023/03/11 10:02:40;;;;;;;7.63;6.70;;;1.80;1.00;;;;;;5063051;28;20254;-85
2023/03/11 10:05:15;;;;;;;7.90;6.18;;;2.10;99.90;;;;;;5061209;28;20227;-86
2023/03/11 10:07:47;;;;;;;7.65;5.60;;;2.00;99.90;;;;;;5059532;28;20262;-85
2023/03/11 10:10:15;;;;;;;8.13;6.45;;;2.00;99.90;;;;;;5061188;28;20278;-84
2023/03/11 10:12:52;;;;;;;7.82;7.03;;;1.90;99.10;;;;;;5069227;28;20298;-85
2023/03/11 10:15:28;;;;;;;9.20;7.32;;;2.20;99.90;;;;;;5070704;28;20214;-85
2023/03/11 10:18:30;;;;;;;8.20;5.55;;;2.10;99.90;;;;;;5060736;28;20255;-84
2023/03/11 10:21:06;;;;;;;8.98;6.55;;;1.90;37.90;;;;;;5064013;28;20242;-86
2023/03/11 10:23:44;;;;;;;9.00;6.80;;;2.00;47.80;;;;;;5066367;28;20277;-86
2023/03/11 10:26:15;;;;;;;9.95;7.53;;;2.70;99.90;;;;;;5069267;28;20194;-86
2023/03/11 10:28:46;;;;;;;8.57;7.68;;;2.40;99.90;;;;;;5067937;28;20223;-84
2023/03/11 10:31:21;;;;;;;8.70;6.60;;;2.60;99.90;;;;;;5064572;28;20193;-86
2023/03/11 10:33:52;;;;;;;9.20;7.57;;;2.60;93.70;;;;;;5064303;28;20228;-85
2023/03/11 10:36:25;;;;;;;8.90;8.10;;;2.20;99.90;;;;;;5064205;28;20210;-85
2023/03/11 10:38:54;;;;;;;9.63;7.40;;;2.60;63.90;;;;;;5062280;28;20215;-85
2023/03/11 10:41:28;;;;;;;10.25;8.15;;;3.30;25.00;;;;;;5061910;28;20291;-86
2023/03/11 10:44:03;;;;;;;9.15;7.40;;;3.00;99.90;;;;;;5059307;28;20293;-85
2023/03/11 10:46:30;;;;;;;8.00;7.20;;;3.10;99.90;;;;;;5059884;28;20210;-85
2023/03/11 10:48:57;;;;;;;9.40;7.57;;;3.00;9.20;;;;;;5059192;28;20227;-85
2023/03/11 10:51:32;;;;;;;8.68;7.25;;;3.10;1.00;;;;;;5058719;28;20242;-85
2023/03/11 10:54:02;;;;;;;7.57;6.78;;;2.80;1.00;;;;;;5058742;28;20222;-85
2023/03/11 10:56:31;;;;;;;8.25;7.32;;;2.50;1.00;;;;;;5058814;28;20252;-85
2023/03/11 10:58:58;;;;;;;9.05;7.25;;;2.80;8.00;;;;;;5062611;28;20293;-85
2023/03/11 11:01:26;;;;;;;7.40;6.70;;;2.60;1.00;;;;;;5061620;28;20225;-85
2023/03/11 11:03:55;;;;;;;8.77;7.20;;;2.20;1.00;;;;;;5059660;28;20230;-84
2023/03/11 11:06:28;;;;;;;8.88;6.88;;;2.70;1.00;;;;;;5058566;28;20573;-86
2023/03/11 11:09:16;;;;;;;9.63;7.03;;;2.80;1.00;;;;;;5057285;28;20257;-85
2023/03/11 11:11:59;;;;;;;10.15;8.10;;;2.90;1.00;;;;;;5061971;28;20234;-85
2023/03/11 11:14:26;;;;;;;8.70;7.80;;;2.90;1.00;;;;;;5070237;28;20251;-85
2023/03/11 11:16:53;;;;;;;9.80;7.38;;;2.60;1.00;;;;;;5075917;28;20705;-85
2023/03/11 11:19:20;;;;;;;10.70;7.60;;;2.80;1.00;;;;;;5064705;28;20231;-87
2023/03/11 11:21:51;;;;;;;12.77;8.20;;;2.40;1.00;;;;;;5064177;28;20617;-86
2023/03/11 11:24:22;;;;;;;13.32;9.07;;;2.50;1.00;;;;;;5064070;28;20239;-85
2023/03/11 11:27:13;;;;;;;10.25;8.35;;;2.30;1.00;;;;;;5063012;28;20612;-86
2023/03/11 11:29:40;;;;;;;9.68;8.65;;;2.50;1.00;;;;;;5065500;28;20208;-85
2023/03/11 11:32:19;;;;;;;9.43;8.48;;;2.30;1.00;;;;;;5060458;28;20235;-86
2023/03/11 11:35:01;;;;;;;9.57;8.55;;;2.20;1.00;;;;;;5062745;28;20689;-86
2023/03/11 11:37:32;;;;;;;12.10;8.75;;;2.40;1.00;;;;;;5063174;28;20573;-85
2023/03/11 11:40:08;;;;;;;10.43;9.13;;;2.20;99.90;;;;;;5062909;28;20191;-83
2023/03/11 11:42:37;;;;;;;10.15;9.15;;;2.50;1.00;;;;;;5067114;28;20222;-84
2023/03/11 11:45:12;;;;;;;12.18;8.88;;;2.70;1.00;;;;;;5064016;28;20224;-84
2023/03/11 11:47:44;;;;;;;11.23;10.02;;;3.20;1.00;;;;;;5064856;28;20188;-85
2023/03/11 11:50:18;;;;;;;12.98;10.18;;;2.70;99.90;;;;;;5067026;28;20215;-84
2023/03/11 11:52:51;;;;;;;13.82;10.15;;;3.00;99.90;;;;;;5075542;28;20197;-85
2023/03/11 11:55:21;;;;;;;15.75;10.95;;;4.10;99.90;;;;;;5078119;28;20204;-85
2023/03/11 11:57:50;;;;;;;12.93;9.85;;;3.70;1.00;;;;;;5064558;28;20246;-86
2023/03/11 12:00:20;;;;;;;12.15;9.48;;;3.40;99.90;;;;;;5066531;28;20207;-85
2023/03/11 12:03:06;;;;;;;11.25;9.63;;;3.50;99.90;;;;;;5070203;28;20643;-85
2023/03/11 12:05:40;;;;;;;12.90;9.30;;;2.50;99.90;;;;;;5063705;28;20225;-86
2023/03/11 12:08:20;;;;;;;10.27;8.68;;;3.80;55.10;;;;;;5066314;28;20209;-85
2023/03/11 12:10:55;;;;;;;10.60;9.40;;;3.60;99.90;;;;;;5074028;28;20199;-85
2023/03/11 12:13:41;;;;;;;9.77;8.77;;;3.80;99.90;;;;;;5071848;28;20223;-85
2023/03/11 12:16:16;;;;;;;9.95;8.95;;;3.80;99.90;;;;;;5072730;28;20698;-85
2023/03/11 12:18:52;;;;;;;12.25;8.65;;;4.00;99.90;;;;;;5072874;28;20191;-87
2023/03/11 12:21:32;;;;;;;9.40;8.07;;;4.00;91.50;;;;;;5069217;28;20259;-83
2023/03/11 12:24:18;;;;;;;9.90;8.27;;;3.60;1.00;;;;;;5125201;22;20241;-80
2023/03/11 12:26:48;;;;;;;9.27;8.38;;;3.70;52.70;;;;;;5061165;28;20222;-80
2023/03/11 12:29:24;;;;;;;9.13;8.20;;;3.40;1.00;;;;;;5059019;28;20562;-79
2023/03/11 12:31:51;;;;;;;10.38;8.60;;;3.40;1.00;;;;;;5059524;28;20568;-79
2023/03/11 12:34:23;;;;;;;9.65;8.65;;;3.50;1.00;;;;;;5057074;28;20321;-79
2023/03/11 12:36:51;;;;;;;11.18;8.27;;;3.60;1.00;;;;;;5060116;28;20196;-80
2023/03/11 12:39:24;;;;;;;10.25;8.57;;;3.60;23.80;;;;;;5061451;28;20546;-78
2023/03/11 12:42:16;;;;;;;10.20;8.55;;;3.20;1.00;;;;;;5057116;28;20184;-78
2023/03/11 12:44:43;;;;;;;9.07;7.72;;;3.30;1.00;;;;;;5056999;28;20227;-79
2023/03/11 12:47:22;;;;;;;8.15;7.35;;;3.30;1.00;;;;;;5056734;28;20203;-79
2023/03/11 12:49:53;;;;;;;12.40;6.80;;;3.20;1.00;;;;;;5060069;28;20738;-79
2023/03/11 12:52:30;;;;;;;8.10;7.15;;;3.00;99.90;;;;;;5058094;28;20207;-80
2023/03/11 12:55:37;;;;;;;8.05;7.30;;;3.00;99.90;;;;;;5059328;28;20224;-79
2023/03/11 12:58:32;;;;;;;12.23;6.80;;;3.10;99.90;;;;;;5057984;28;20181;-79
2023/03/11 13:01:35;;;;;;;9.38;8.10;;;2.90;99.90;;;;;;5056167;28;20666;-79
2023/03/11 13:04:27;;;;;;;10.57;9.18;;;3.30;1.00;;;;;;5037028;28;20717;-79
2023/03/11 13:07:21;;;;;;;8.70;7.80;;;2.80;99.90;;;;;;5062350;28;20617;-79
2023/03/11 13:10:01;;;;;;;12.05;8.55;;;3.00;1.00;;;;;;5061949;28;20761;-80